Time,TemperatureF,DewpointF,PressureIn,WindDirection,WindDirectionDegrees,WindSpeedMPH,WindSpeedGustMPH,Humidity,HourlyPrecipIn,Conditions,Clouds,dailyrainin,SolarRadiationWatts/m^2,SoftwareType,DateUTC
2013-07-15 00:01:00,57.0,41.0,-100.00,WNW,282,1.0,3.0,55,0.00,,,0.00,6.000000,,2013-07-15 08:01:00,
2013-07-15 00:11:00,57.0,41.0,-100.00,WNW,282,1.0,3.0,55,0.00,,,0.00,6.000000,,2013-07-15 08:11:00,
2013-07-15 00:22:00,57.0,41.0,-100.00,WNW,282,1.0,3.0,55,0.00,,,0.00,6.000000,,2013-07-15 08:22:00,
2013-07-15 00:32:00,57.0,41.0,-100.00,WNW,282,1.0,3.0,55,0.00,,,0.00,6.000000,,2013-07-15 08:32:00,
2013-07-15 00:53:00,56.0,40.0,-100.00,SW,214,1.0,2.0,55,0.00,,,0.00,0.000000,,2013-07-15 08:53:00,
2013-07-15 01:01:00,56.0,40.0,-100.00,SW,214,1.0,2.0,55,0.00,,,0.00,0.000000,,2013-07-15 09:01:00,
2013-07-15 01:11:00,56.0,40.0,-100.00,SW,214,1.0,2.0,55,0.00,,,0.00,0.000000,,2013-07-15 09:11:00,
2013-07-15 01:22:00,56.0,40.0,-100.00,SW,214,1.0,2.0,55,0.00,,,0.00,0.000000,,2013-07-15 09:22:00,
2013-07-15 01:32:00,56.0,40.0,-100.00,SW,214,1.0,2.0,55,0.00,,,0.00,0.000000,,2013-07-15 09:32:00,
2013-07-15 01:52:00,55.0,41.0,-100.00,WSW,255,1.0,2.0,60,0.00,,,0.00,0.000000,,2013-07-15 09:52:00,
2013-07-15 02:02:00,55.0,41.0,-100.00,WSW,255,1.0,2.0,60,0.00,,,0.00,0.000000,,2013-07-15 10:02:00,
2013-07-15 02:11:00,55.0,41.0,-100.00,WSW,255,1.0,2.0,60,0.00,,,0.00,0.000000,,2013-07-15 10:11:00,
2013-07-15 02:21:00,55.0,41.0,-100.00,WSW,255,1.0,2.0,60,0.00,,,0.00,0.000000,,2013-07-15 10:21:00,
2013-07-15 02:32:00,55.0,41.0,-100.00,WSW,255,1.0,2.0,60,0.00,,,0.00,0.000000,,2013-07-15 10:32:00,
2013-07-15 02:53:00,54.0,39.0,-100.00,North,352,2.0,4.0,56,0.00,,,0.00,0.000000,,2013-07-15 10:53:00,
2013-07-15 03:01:00,54.0,39.0,-100.00,North,352,2.0,4.0,56,0.00,,,0.00,0.000000,,2013-07-15 11:01:00,
2013-07-15 03:11:00,54.0,39.0,-100.00,North,352,2.0,4.0,56,0.00,,,0.00,0.000000,,2013-07-15 11:11:00,
2013-07-15 03:22:00,54.0,39.0,-100.00,North,352,2.0,4.0,56,0.00,,,0.00,0.000000,,2013-07-15 11:22:00,
2013-07-15 03:32:00,54.0,39.0,-100.00,North,352,2.0,4.0,56,0.00,,,0.00,0.000000,,2013-07-15 11:32:00,
2013-07-15 03:52:00,53.0,41.0,-100.00,NNW,339,1.0,4.0,63,0.00,,,0.00,0.000000,,2013-07-15 11:52:00,
2013-07-15 04:01:00,53.0,41.0,-100.00,NNW,339,1.0,4.0,63,0.00,,,0.00,0.000000,,2013-07-15 12:01:00,
2013-07-15 04:11:00,53.0,41.0,-100.00,NNW,339,1.0,4.0,63,0.00,,,0.00,0.000000,,2013-07-15 12:11:00,
2013-07-15 04:22:00,53.0,41.0,-100.00,NNW,339,1.0,4.0,63,0.00,,,0.00,0.000000,,2013-07-15 12:22:00,
2013-07-15 04:32:00,53.0,41.0,-100.00,NNW,339,1.0,4.0,63,0.00,,,0.00,0.000000,,2013-07-15 12:32:00,
2013-07-15 04:53:00,51.0,40.0,-100.00,NW,313,2.0,5.0,66,0.00,,,0.00,0.000000,,2013-07-15 12:53:00,
2013-07-15 05:01:00,51.0,40.0,-100.00,NW,313,2.0,5.0,66,0.00,,,0.00,0.000000,,2013-07-15 13:01:00,
2013-07-15 05:11:00,51.0,40.0,-100.00,NW,313,2.0,5.0,66,0.00,,,0.00,0.000000,,2013-07-15 13:11:00,
2013-07-15 05:22:00,51.0,40.0,-100.00,NW,313,2.0,5.0,66,0.00,,,0.00,0.000000,,2013-07-15 13:22:00,
2013-07-15 05:32:00,51.0,40.0,-100.00,NW,313,2.0,5.0,66,0.00,,,0.00,0.000000,,2013-07-15 13:32:00,
2013-07-15 05:33:00,50.0,42.0,-100.00,NW,308,3.0,5.0,74,0.00,,,0.00,4.000000,,2013-07-15 13:33:00,
2013-07-15 06:02:00,50.0,42.0,-100.00,NW,308,3.0,5.0,74,0.00,,,0.00,4.000000,,2013-07-15 14:02:00,
2013-07-15 06:11:00,50.0,42.0,-100.00,NW,308,3.0,5.0,74,0.00,,,0.00,4.000000,,2013-07-15 14:11:00,
2013-07-15 06:22:00,50.0,42.0,-100.00,NW,308,3.0,5.0,74,0.00,,,0.00,4.000000,,2013-07-15 14:22:00,
2013-07-15 06:33:00,49.0,39.0,-100.00,NW,325,1.0,3.0,69,0.00,,,0.00,14.000000,,2013-07-15 14:33:00,
2013-07-15 06:59:00,49.0,39.0,-100.00,NW,325,1.0,3.0,69,0.00,,,0.00,14.000000,,2013-07-15 14:59:00,
2013-07-15 07:14:00,49.0,39.0,-100.00,NW,325,1.0,3.0,69,0.00,,,0.00,14.000000,,2013-07-15 15:14:00,
2013-07-15 07:53:00,50.0,41.0,-100.00,NW,305,2.0,4.0,72,0.00,,,0.00,85.000000,,2013-07-15 15:53:00,
2013-07-15 08:04:00,50.0,41.0,-100.00,NW,305,2.0,4.0,72,0.00,,,0.00,85.000000,,2013-07-15 16:04:00,
2013-07-15 08:14:00,50.0,41.0,-100.00,NW,305,2.0,4.0,72,0.00,,,0.00,85.000000,,2013-07-15 16:14:00,
2013-07-15 08:32:00,50.0,41.0,-100.00,NW,305,2.0,4.0,72,0.00,,,0.00,85.000000,,2013-07-15 16:32:00,
2013-07-15 08:33:00,53.0,39.0,-100.00,WSW,250,1.0,4.0,60,0.00,,,0.00,270.000000,,2013-07-15 16:33:00,
2013-07-15 08:52:00,53.0,39.0,-100.00,WSW,250,1.0,4.0,60,0.00,,,0.00,270.000000,,2013-07-15 16:52:00,
2013-07-15 09:13:00,53.0,39.0,-100.00,WSW,250,1.0,4.0,60,0.00,,,0.00,270.000000,,2013-07-15 17:13:00,
2013-07-15 09:23:00,53.0,39.0,-100.00,WSW,250,1.0,4.0,60,0.00,,,0.00,270.000000,,2013-07-15 17:23:00,
2013-07-15 09:59:00,55.0,40.0,-100.00,SW,221,0.0,2.0,56,0.00,,,0.00,410.000000,,2013-07-15 17:59:00,
2013-07-15 10:13:00,55.0,40.0,-100.00,SW,221,0.0,2.0,56,0.00,,,0.00,410.000000,,2013-07-15 18:13:00,
2013-07-15 10:33:00,56.0,38.0,-100.00,SSE,148,1.0,4.0,51,0.00,,,0.00,543.000000,,2013-07-15 18:33:00,
2013-07-15 10:59:00,56.0,38.0,-100.00,SSE,148,1.0,4.0,51,0.00,,,0.00,543.000000,,2013-07-15 18:59:00,
2013-07-15 11:04:00,56.0,38.0,-100.00,SSE,148,1.0,4.0,51,0.00,,,0.00,543.000000,,2013-07-15 19:04:00,
2013-07-15 11:11:00,56.0,38.0,-100.00,SSE,148,1.0,4.0,51,0.00,,,0.00,543.000000,,2013-07-15 19:11:00,
2013-07-15 11:23:00,56.0,38.0,-100.00,SSE,148,1.0,4.0,51,0.00,,,0.00,543.000000,,2013-07-15 19:23:00,
2013-07-15 12:04:00,57.0,44.0,-100.00,SSW,197,1.0,3.0,62,0.00,,,0.00,666.000000,,2013-07-15 20:04:00,
2013-07-15 12:14:00,57.0,44.0,-100.00,SSW,197,1.0,3.0,62,0.00,,,0.00,666.000000,,2013-07-15 20:14:00,
2013-07-15 12:23:00,57.0,44.0,-100.00,SSW,197,1.0,3.0,62,0.00,,,0.00,666.000000,,2013-07-15 20:23:00,
2013-07-15 12:33:00,59.0,44.0,-100.00,SSE,159,1.0,4.0,57,0.00,,,0.00,754.000000,,2013-07-15 20:33:00,
2013-07-15 13:02:00,59.0,44.0,-100.00,SSE,159,1.0,4.0,57,0.00,,,0.00,754.000000,,2013-07-15 21:02:00,
2013-07-15 13:12:00,59.0,44.0,-100.00,SSE,159,1.0,4.0,57,0.00,,,0.00,754.000000,,2013-07-15 21:12:00,
2013-07-15 13:23:00,59.0,44.0,-100.00,SSE,159,1.0,4.0,57,0.00,,,0.00,754.000000,,2013-07-15 21:23:00,
2013-07-15 13:33:00,60.0,41.0,-100.00,SSW,203,2.0,5.0,49,0.00,,,0.00,804.000000,,2013-07-15 21:33:00,
2013-07-15 14:02:00,60.0,41.0,-100.00,SSW,203,2.0,5.0,49,0.00,,,0.00,804.000000,,2013-07-15 22:02:00,
2013-07-15 14:22:00,60.0,41.0,-100.00,SSW,203,2.0,5.0,49,0.00,,,0.00,804.000000,,2013-07-15 22:22:00,
2013-07-15 14:33:00,62.0,43.0,-100.00,SSW,205,2.0,5.0,50,0.00,,,0.00,825.000000,,2013-07-15 22:33:00,
2013-07-15 15:03:00,62.0,43.0,-100.00,SSW,205,2.0,5.0,50,0.00,,,0.00,825.000000,,2013-07-15 23:03:00,
2013-07-15 15:13:00,62.0,43.0,-100.00,SSW,205,2.0,5.0,50,0.00,,,0.00,825.000000,,2013-07-15 23:13:00,
2013-07-15 15:54:00,64.0,43.0,-100.00,WSW,256,2.0,7.0,47,0.00,,,0.00,778.000000,,2013-07-15 23:54:00,
2013-07-15 16:03:00,64.0,43.0,-100.00,WSW,256,2.0,7.0,47,0.00,,,0.00,778.000000,,2013-07-16 00:03:00,
2013-07-15 16:12:00,64.0,43.0,-100.00,WSW,256,2.0,7.0,47,0.00,,,0.00,778.000000,,2013-07-16 00:12:00,
2013-07-15 16:23:00,64.0,43.0,-100.00,WSW,256,2.0,7.0,47,0.00,,,0.00,778.000000,,2013-07-16 00:23:00,
2013-07-15 17:12:00,63.0,41.0,-100.00,NNE,23,2.0,4.0,44,0.00,,,0.00,607.000000,,2013-07-16 01:12:00,
2013-07-15 17:23:00,63.0,41.0,-100.00,NNE,23,2.0,4.0,44,0.00,,,0.00,607.000000,,2013-07-16 01:23:00,
2013-07-15 17:33:00,63.0,39.0,-100.00,NNW,340,2.0,5.0,41,0.00,,,0.00,572.000000,,2013-07-16 01:33:00,
2013-07-15 18:02:00,63.0,39.0,-100.00,NNW,340,2.0,5.0,41,0.00,,,0.00,572.000000,,2013-07-16 02:02:00,
2013-07-15 18:11:00,63.0,39.0,-100.00,NNW,340,2.0,5.0,41,0.00,,,0.00,572.000000,,2013-07-16 02:11:00,
2013-07-15 18:23:00,63.0,39.0,-100.00,NNW,340,2.0,5.0,41,0.00,,,0.00,572.000000,,2013-07-16 02:23:00,
2013-07-15 19:13:00,64.0,37.0,-100.00,NNW,343,3.0,9.0,36,0.00,,,0.00,566.000000,,2013-07-16 03:13:00,
2013-07-15 19:23:00,64.0,37.0,-100.00,NNW,343,3.0,9.0,36,0.00,,,0.00,566.000000,,2013-07-16 03:23:00,